sensor_id;sensor_type;location;lat;lon;timestamp;P1;durP1;ratioP1;P2;durP2;ratioP2
70757;SDS011;59316;52.964;7.102;2023-08-30T00:03:11;20.80;;;13.25;;
70757;SDS011;59316;52.964;7.102;2023-08-30T00:08:33;19.73;;;13.40;;
70757;SDS011;59316;52.964;7.102;2023-08-30T00:14:02;27.63;;;15.40;;
70757;SDS011;59316;52.964;7.102;2023-08-30T00:19:24;28.13;;;15.02;;
70757;SDS011;59316;52.964;7.102;2023-08-30T00:24:46;29.50;;;17.10;;
70757;SDS011;59316;52.964;7.102;2023-08-30T00:30:07;29.33;;;15.95;;
70757;SDS011;59316;52.964;7.102;2023-08-30T00:35:30;28.30;;;14.93;;
70757;SDS011;59316;52.964;7.102;2023-08-30T00:40:51;32.83;;;17.63;;
70757;SDS011;59316;52.964;7.102;2023-08-30T00:46:12;33.00;;;17.85;;
70757;SDS011;59316;52.964;7.102;2023-08-30T00:51:34;38.72;;;19.65;;
70757;SDS011;59316;52.964;7.102;2023-08-30T00:56:56;40.10;;;20.77;;
70757;SDS011;59316;52.964;7.102;2023-08-30T01:02:18;40.38;;;20.45;;
70757;SDS011;59316;52.964;7.102;2023-08-30T01:07:40;42.42;;;21.02;;
70757;SDS011;59316;52.964;7.102;2023-08-30T01:13:05;42.85;;;22.25;;
70757;SDS011;59316;52.964;7.102;2023-08-30T01:18:32;47.67;;;23.08;;
70757;SDS011;59316;52.964;7.102;2023-08-30T01:23:56;51.85;;;24.45;;
70757;SDS011;59316;52.964;7.102;2023-08-30T01:29:20;46.03;;;21.80;;
70757;SDS011;59316;52.964;7.102;2023-08-30T01:34:43;56.15;;;23.70;;
70757;SDS011;59316;52.964;7.102;2023-08-30T01:40:04;51.47;;;23.08;;
70757;SDS011;59316;52.964;7.102;2023-08-30T01:45:28;50.33;;;22.08;;
70757;SDS011;59316;52.964;7.102;2023-08-30T01:50:50;45.47;;;22.15;;
70757;SDS011;59316;52.964;7.102;2023-08-30T01:56:11;39.55;;;19.92;;
70757;SDS011;59316;52.964;7.102;2023-08-30T02:01:33;38.78;;;20.00;;
70757;SDS011;59316;52.964;7.102;2023-08-30T02:07:02;42.83;;;21.27;;
70757;SDS011;59316;52.964;7.102;2023-08-30T02:12:27;40.67;;;19.85;;
70757;SDS011;59316;52.964;7.102;2023-08-30T02:18:00;44.67;;;20.30;;
70757;SDS011;59316;52.964;7.102;2023-08-30T02:23:24;45.07;;;20.67;;
70757;SDS011;59316;52.964;7.102;2023-08-30T02:28:46;41.08;;;20.58;;
70757;SDS011;59316;52.964;7.102;2023-08-30T02:34:07;41.83;;;20.13;;
70757;SDS011;59316;52.964;7.102;2023-08-30T02:39:29;42.45;;;20.30;;
70757;SDS011;59316;52.964;7.102;2023-08-30T02:44:51;46.42;;;20.15;;
70757;SDS011;59316;52.964;7.102;2023-08-30T02:50:13;33.13;;;17.48;;
70757;SDS011;59316;52.964;7.102;2023-08-30T02:55:34;32.10;;;16.48;;
70757;SDS011;59316;52.964;7.102;2023-08-30T03:00:56;27.60;;;14.82;;
70757;SDS011;59316;52.964;7.102;2023-08-30T03:06:18;27.92;;;14.68;;
70757;SDS011;59316;52.964;7.102;2023-08-30T03:11:39;30.00;;;15.73;;
70757;SDS011;59316;52.964;7.102;2023-08-30T03:17:00;25.90;;;14.13;;
70757;SDS011;59316;52.964;7.102;2023-08-30T03:22:22;26.77;;;14.95;;
70757;SDS011;59316;52.964;7.102;2023-08-30T03:27:44;32.80;;;17.08;;
70757;SDS011;59316;52.964;7.102;2023-08-30T03:33:05;28.00;;;14.52;;
70757;SDS011;59316;52.964;7.102;2023-08-30T03:38:27;29.88;;;16.08;;
70757;SDS011;59316;52.964;7.102;2023-08-30T03:43:48;30.00;;;15.70;;
70757;SDS011;59316;52.964;7.102;2023-08-30T03:49:10;34.25;;;16.73;;
70757;SDS011;59316;52.964;7.102;2023-08-30T03:54:31;29.88;;;14.95;;
70757;SDS011;59316;52.964;7.102;2023-08-30T03:59:52;30.17;;;16.00;;
70757;SDS011;59316;52.964;7.102;2023-08-30T04:05:14;26.17;;;14.05;;
70757;SDS011;59316;52.964;7.102;2023-08-30T04:10:35;31.35;;;15.20;;
70757;SDS011;59316;52.964;7.102;2023-08-30T04:15:58;47.22;;;18.55;;
70757;SDS011;59316;52.964;7.102;2023-08-30T04:21:19;41.10;;;19.50;;
70757;SDS011;59316;52.964;7.102;2023-08-30T04:26:41;46.42;;;20.23;;
70757;SDS011;59316;52.964;7.102;2023-08-30T04:32:03;45.85;;;20.65;;
70757;SDS011;59316;52.964;7.102;2023-08-30T04:37:25;55.33;;;21.42;;
70757;SDS011;59316;52.964;7.102;2023-08-30T04:42:49;56.60;;;21.60;;
70757;SDS011;59316;52.964;7.102;2023-08-30T04:48:10;57.10;;;21.88;;
70757;SDS011;59316;52.964;7.102;2023-08-30T04:53:33;44.72;;;18.65;;
70757;SDS011;59316;52.964;7.102;2023-08-30T04:58:54;34.72;;;16.13;;
70757;SDS011;59316;52.964;7.102;2023-08-30T05:04:16;35.05;;;16.55;;
70757;SDS011;59316;52.964;7.102;2023-08-30T05:09:38;36.78;;;17.10;;
70757;SDS011;59316;52.964;7.102;2023-08-30T05:15:00;39.70;;;17.33;;
70757;SDS011;59316;52.964;7.102;2023-08-30T05:20:21;35.60;;;16.52;;
70757;SDS011;59316;52.964;7.102;2023-08-30T05:25:42;30.92;;;15.55;;
70757;SDS011;59316;52.964;7.102;2023-08-30T05:31:05;30.58;;;15.73;;
70757;SDS011;59316;52.964;7.102;2023-08-30T05:37:04;36.70;;;16.65;;
70757;SDS011;59316;52.964;7.102;2023-08-30T05:42:58;35.65;;;16.35;;
70757;SDS011;59316;52.964;7.102;2023-08-30T05:48:20;39.83;;;18.48;;
70757;SDS011;59316;52.964;7.102;2023-08-30T05:53:41;38.35;;;16.30;;
70757;SDS011;59316;52.964;7.102;2023-08-30T05:59:03;42.83;;;19.38;;
70757;SDS011;59316;52.964;7.102;2023-08-30T06:04:24;42.83;;;18.27;;
70757;SDS011;59316;52.964;7.102;2023-08-30T06:09:45;40.30;;;18.73;;
70757;SDS011;59316;52.964;7.102;2023-08-30T06:15:06;39.85;;;18.20;;
70757;SDS011;59316;52.964;7.102;2023-08-30T06:20:28;35.60;;;17.58;;
70757;SDS011;59316;52.964;7.102;2023-08-30T06:25:53;34.80;;;17.45;;
70757;SDS011;59316;52.964;7.102;2023-08-30T06:31:17;36.75;;;16.17;;
70757;SDS011;59316;52.964;7.102;2023-08-30T06:36:39;36.33;;;16.67;;
70757;SDS011;59316;52.964;7.102;2023-08-30T06:42:00;35.72;;;16.23;;
70757;SDS011;59316;52.964;7.102;2023-08-30T06:47:25;30.67;;;15.57;;
70757;SDS011;59316;52.964;7.102;2023-08-30T06:52:47;29.15;;;15.13;;
70757;SDS011;59316;52.964;7.102;2023-08-30T06:58:08;27.90;;;15.45;;
70757;SDS011;59316;52.964;7.102;2023-08-30T07:03:30;24.30;;;14.45;;
70757;SDS011;59316;52.964;7.102;2023-08-30T07:08:51;26.30;;;14.85;;
70757;SDS011;59316;52.964;7.102;2023-08-30T07:14:12;24.02;;;14.25;;
70757;SDS011;59316;52.964;7.102;2023-08-30T07:19:34;22.35;;;13.30;;
70757;SDS011;59316;52.964;7.102;2023-08-30T07:24:56;23.42;;;13.05;;
70757;SDS011;59316;52.964;7.102;2023-08-30T07:30:17;21.40;;;13.05;;
70757;SDS011;59316;52.964;7.102;2023-08-30T07:35:39;23.20;;;12.88;;
70757;SDS011;59316;52.964;7.102;2023-08-30T07:41:00;21.33;;;12.68;;
70757;SDS011;59316;52.964;7.102;2023-08-30T07:46:21;20.10;;;12.18;;
70757;SDS011;59316;52.964;7.102;2023-08-30T07:51:42;21.13;;;11.30;;
70757;SDS011;59316;52.964;7.102;2023-08-30T07:57:04;20.98;;;11.52;;
70757;SDS011;59316;52.964;7.102;2023-08-30T08:02:26;17.73;;;11.18;;
70757;SDS011;59316;52.964;7.102;2023-08-30T08:07:51;19.33;;;11.20;;
70757;SDS011;59316;52.964;7.102;2023-08-30T08:13:13;17.58;;;11.10;;
70757;SDS011;59316;52.964;7.102;2023-08-30T08:18:35;15.27;;;10.07;;
70757;SDS011;59316;52.964;7.102;2023-08-30T08:23:56;18.35;;;11.27;;
70757;SDS011;59316;52.964;7.102;2023-08-30T08:29:18;13.88;;;9.20;;
70757;SDS011;59316;52.964;7.102;2023-08-30T08:34:39;13.00;;;8.82;;
70757;SDS011;59316;52.964;7.102;2023-08-30T08:40:00;11.68;;;8.30;;
70757;SDS011;59316;52.964;7.102;2023-08-30T08:45:21;12.50;;;7.88;;
70757;SDS011;59316;52.964;7.102;2023-08-30T08:50:43;12.55;;;8.13;;
70757;SDS011;59316;52.964;7.102;2023-08-30T08:56:04;14.10;;;8.30;;
70757;SDS011;59316;52.964;7.102;2023-08-30T09:01:25;11.13;;;7.80;;
70757;SDS011;59316;52.964;7.102;2023-08-30T09:06:55;11.10;;;7.10;;
70757;SDS011;59316;52.964;7.102;2023-08-30T09:12:16;11.40;;;6.95;;
70757;SDS011;59316;52.964;7.102;2023-08-30T09:17:37;11.18;;;7.47;;
70757;SDS011;59316;52.964;7.102;2023-08-30T09:22:59;9.75;;;7.15;;
70757;SDS011;59316;52.964;7.102;2023-08-30T09:28:20;11.23;;;6.93;;
70757;SDS011;59316;52.964;7.102;2023-08-30T09:33:41;15.63;;;7.22;;
70757;SDS011;59316;52.964;7.102;2023-08-30T09:44:30;9.77;;;6.47;;
70757;SDS011;59316;52.964;7.102;2023-08-30T09:49:53;12.80;;;8.43;;
70757;SDS011;59316;52.964;7.102;2023-08-30T09:55:15;12.82;;;7.47;;
70757;SDS011;59316;52.964;7.102;2023-08-30T10:00:39;9.75;;;6.90;;
70757;SDS011;59316;52.964;7.102;2023-08-30T10:06:00;9.80;;;6.28;;
70757;SDS011;59316;52.964;7.102;2023-08-30T10:11:23;12.18;;;7.35;;
70757;SDS011;59316;52.964;7.102;2023-08-30T10:16:48;12.40;;;7.20;;
70757;SDS011;59316;52.964;7.102;2023-08-30T10:22:09;15.02;;;7.30;;
70757;SDS011;59316;52.964;7.102;2023-08-30T10:27:34;14.10;;;8.65;;
70757;SDS011;59316;52.964;7.102;2023-08-30T10:32:56;9.55;;;6.22;;
70757;SDS011;59316;52.964;7.102;2023-08-30T10:38:24;10.90;;;6.38;;
70757;SDS011;59316;52.964;7.102;2023-08-30T10:43:52;12.27;;;6.97;;
70757;SDS011;59316;52.964;7.102;2023-08-30T10:49:19;10.68;;;7.60;;
70757;SDS011;59316;52.964;7.102;2023-08-30T10:54:40;10.38;;;7.28;;
70757;SDS011;59316;52.964;7.102;2023-08-30T11:05:29;10.35;;;6.75;;
70757;SDS011;59316;52.964;7.102;2023-08-30T11:10:59;9.32;;;6.30;;
70757;SDS011;59316;52.964;7.102;2023-08-30T11:16:23;8.40;;;6.30;;
70757;SDS011;59316;52.964;7.102;2023-08-30T11:21:44;11.02;;;6.55;;
70757;SDS011;59316;52.964;7.102;2023-08-30T11:27:05;14.93;;;7.90;;
70757;SDS011;59316;52.964;7.102;2023-08-30T11:32:27;12.55;;;7.78;;
70757;SDS011;59316;52.964;7.102;2023-08-30T11:37:48;12.77;;;7.68;;
70757;SDS011;59316;52.964;7.102;2023-08-30T11:43:10;12.07;;;7.85;;
70757;SDS011;59316;52.964;7.102;2023-08-30T11:48:31;11.55;;;7.45;;
70757;SDS011;59316;52.964;7.102;2023-08-30T11:53:52;9.70;;;6.95;;
70757;SDS011;59316;52.964;7.102;2023-08-30T11:59:18;9.90;;;6.95;;
70757;SDS011;59316;52.964;7.102;2023-08-30T12:04:42;10.15;;;6.82;;
70757;SDS011;59316;52.964;7.102;2023-08-30T12:10:04;10.95;;;7.03;;
70757;SDS011;59316;52.964;7.102;2023-08-30T12:15:29;15.88;;;9.07;;
70757;SDS011;59316;52.964;7.102;2023-08-30T12:26:31;16.25;;;10.43;;
70757;SDS011;59316;52.964;7.102;2023-08-30T12:31:52;14.57;;;9.88;;
70757;SDS011;59316;52.964;7.102;2023-08-30T12:37:14;19.10;;;12.30;;
70757;SDS011;59316;52.964;7.102;2023-08-30T12:42:35;17.75;;;12.02;;
70757;SDS011;59316;52.964;7.102;2023-08-30T12:47:56;17.95;;;12.30;;
70757;SDS011;59316;52.964;7.102;2023-08-30T12:53:18;18.27;;;12.27;;
70757;SDS011;59316;52.964;7.102;2023-08-30T12:58:39;18.55;;;11.98;;
70757;SDS011;59316;52.964;7.102;2023-08-30T13:04:00;19.92;;;13.05;;
70757;SDS011;59316;52.964;7.102;2023-08-30T13:09:21;19.45;;;13.18;;
70757;SDS011;59316;52.964;7.102;2023-08-30T13:14:42;15.00;;;10.43;;
70757;SDS011;59316;52.964;7.102;2023-08-30T13:20:04;15.90;;;10.77;;
70757;SDS011;59316;52.964;7.102;2023-08-30T13:25:26;13.43;;;9.98;;
70757;SDS011;59316;52.964;7.102;2023-08-30T13:30:47;13.05;;;9.60;;
70757;SDS011;59316;52.964;7.102;2023-08-30T13:36:09;11.07;;;8.48;;
70757;SDS011;59316;52.964;7.102;2023-08-30T13:41:30;9.93;;;7.97;;
70757;SDS011;59316;52.964;7.102;2023-08-30T13:46:51;9.63;;;6.88;;
70757;SDS011;59316;52.964;7.102;2023-08-30T13:52:12;7.93;;;5.85;;
70757;SDS011;59316;52.964;7.102;2023-08-30T13:57:34;7.20;;;5.90;;
70757;SDS011;59316;52.964;7.102;2023-08-30T14:02:55;7.32;;;5.97;;
70757;SDS011;59316;52.964;7.102;2023-08-30T14:08:17;9.23;;;6.45;;
70757;SDS011;59316;52.964;7.102;2023-08-30T14:13:38;7.22;;;5.70;;
70757;SDS011;59316;52.964;7.102;2023-08-30T14:18:59;8.18;;;6.28;;
70757;SDS011;59316;52.964;7.102;2023-08-30T14:24:20;6.43;;;5.32;;
70757;SDS011;59316;52.964;7.102;2023-08-30T14:29:42;8.27;;;5.95;;
70757;SDS011;59316;52.964;7.102;2023-08-30T14:35:04;7.75;;;5.75;;
70757;SDS011;59316;52.964;7.102;2023-08-30T14:40:25;7.65;;;5.38;;
70757;SDS011;59316;52.964;7.102;2023-08-30T14:45:46;7.20;;;5.50;;
70757;SDS011;59316;52.964;7.102;2023-08-30T14:51:19;8.02;;;5.95;;
70757;SDS011;59316;52.964;7.102;2023-08-30T14:56:40;8.73;;;6.07;;
70757;SDS011;59316;52.964;7.102;2023-08-30T15:02:02;10.27;;;5.40;;
70757;SDS011;59316;52.964;7.102;2023-08-30T15:07:24;2.47;;;1.80;;
70757;SDS011;59316;52.964;7.102;2023-08-30T15:12:45;1.98;;;0.88;;
70757;SDS011;59316;52.964;7.102;2023-08-30T15:18:06;1.20;;;0.65;;
70757;SDS011;59316;52.964;7.102;2023-08-30T15:23:27;0.45;;;0.40;;
70757;SDS011;59316;52.964;7.102;2023-08-30T15:28:49;0.40;;;0.32;;
70757;SDS011;59316;52.964;7.102;2023-08-30T15:34:10;0.40;;;0.40;;
70757;SDS011;59316;52.964;7.102;2023-08-30T15:39:31;1.33;;;0.60;;
70757;SDS011;59316;52.964;7.102;2023-08-30T15:44:52;1.33;;;0.90;;
70757;SDS011;59316;52.964;7.102;2023-08-30T15:50:14;1.20;;;1.00;;
70757;SDS011;59316;52.964;7.102;2023-08-30T15:55:35;1.88;;;1.10;;
70757;SDS011;59316;52.964;7.102;2023-08-30T16:01:01;1.65;;;1.20;;
70757;SDS011;59316;52.964;7.102;2023-08-30T16:06:23;1.95;;;1.38;;
70757;SDS011;59316;52.964;7.102;2023-08-30T16:11:44;1.88;;;1.40;;
70757;SDS011;59316;52.964;7.102;2023-08-30T16:17:05;2.05;;;1.65;;
70757;SDS011;59316;52.964;7.102;2023-08-30T16:22:27;2.60;;;1.80;;
70757;SDS011;59316;52.964;7.102;2023-08-30T16:27:48;1.90;;;1.50;;
70757;SDS011;59316;52.964;7.102;2023-08-30T16:33:09;4.07;;;1.70;;
70757;SDS011;59316;52.964;7.102;2023-08-30T16:38:30;1.60;;;1.20;;
70757;SDS011;59316;52.964;7.102;2023-08-30T16:43:51;1.70;;;1.52;;
70757;SDS011;59316;52.964;7.102;2023-08-30T16:49:12;3.53;;;2.15;;
70757;SDS011;59316;52.964;7.102;2023-08-30T16:54:33;3.97;;;2.50;;
70757;SDS011;59316;52.964;7.102;2023-08-30T16:59:55;3.42;;;2.53;;
70757;SDS011;59316;52.964;7.102;2023-08-30T17:05:16;4.60;;;3.35;;
70757;SDS011;59316;52.964;7.102;2023-08-30T17:10:38;4.03;;;3.30;;
70757;SDS011;59316;52.964;7.102;2023-08-30T17:15:59;4.85;;;3.75;;
70757;SDS011;59316;52.964;7.102;2023-08-30T17:21:21;4.18;;;3.30;;
70757;SDS011;59316;52.964;7.102;2023-08-30T17:26:43;4.32;;;3.47;;
70757;SDS011;59316;52.964;7.102;2023-08-30T17:32:04;6.15;;;4.35;;
70757;SDS011;59316;52.964;7.102;2023-08-30T17:37:25;6.13;;;4.28;;
70757;SDS011;59316;52.964;7.102;2023-08-30T17:42:46;5.90;;;4.60;;
70757;SDS011;59316;52.964;7.102;2023-08-30T17:48:16;9.70;;;5.53;;
70757;SDS011;59316;52.964;7.102;2023-08-30T17:53:38;7.35;;;5.50;;
70757;SDS011;59316;52.964;7.102;2023-08-30T17:58:59;7.07;;;4.95;;
70757;SDS011;59316;52.964;7.102;2023-08-30T18:04:20;9.85;;;5.85;;
70757;SDS011;59316;52.964;7.102;2023-08-30T18:09:41;9.45;;;6.00;;
70757;SDS011;59316;52.964;7.102;2023-08-30T18:15:03;8.65;;;4.70;;
70757;SDS011;59316;52.964;7.102;2023-08-30T18:20:24;9.20;;;2.75;;
70757;SDS011;59316;52.964;7.102;2023-08-30T18:25:45;5.22;;;2.70;;
70757;SDS011;59316;52.964;7.102;2023-08-30T18:31:07;7.18;;;2.53;;
70757;SDS011;59316;52.964;7.102;2023-08-30T18:36:28;4.13;;;2.40;;
70757;SDS011;59316;52.964;7.102;2023-08-30T18:41:49;3.80;;;2.25;;
70757;SDS011;59316;52.964;7.102;2023-08-30T18:47:11;3.95;;;1.70;;
70757;SDS011;59316;52.964;7.102;2023-08-30T18:52:32;2.67;;;1.30;;
70757;SDS011;59316;52.964;7.102;2023-08-30T18:57:54;4.80;;;1.50;;
70757;SDS011;59316;52.964;7.102;2023-08-30T19:03:15;4.75;;;1.67;;
70757;SDS011;59316;52.964;7.102;2023-08-30T19:08:37;2.80;;;2.13;;
70757;SDS011;59316;52.964;7.102;2023-08-30T19:13:59;4.07;;;2.50;;
70757;SDS011;59316;52.964;7.102;2023-08-30T19:19:21;4.22;;;3.10;;
70757;SDS011;59316;52.964;7.102;2023-08-30T19:24:42;6.60;;;3.20;;
70757;SDS011;59316;52.964;7.102;2023-08-30T19:30:03;6.43;;;3.28;;
70757;SDS011;59316;52.964;7.102;2023-08-30T19:35:25;5.82;;;2.58;;
70757;SDS011;59316;52.964;7.102;2023-08-30T19:40:50;3.88;;;2.63;;
70757;SDS011;59316;52.964;7.102;2023-08-30T19:46:13;3.85;;;2.10;;
70757;SDS011;59316;52.964;7.102;2023-08-30T19:51:34;5.50;;;2.63;;
70757;SDS011;59316;52.964;7.102;2023-08-30T19:56:56;5.22;;;2.80;;
70757;SDS011;59316;52.964;7.102;2023-08-30T20:02:17;6.53;;;3.13;;
70757;SDS011;59316;52.964;7.102;2023-08-30T20:07:38;8.40;;;3.47;;
70757;SDS011;59316;52.964;7.102;2023-08-30T20:13:00;7.22;;;3.25;;
70757;SDS011;59316;52.964;7.102;2023-08-30T20:18:21;6.95;;;3.25;;
70757;SDS011;59316;52.964;7.102;2023-08-30T20:23:42;7.60;;;3.80;;
70757;SDS011;59316;52.964;7.102;2023-08-30T20:29:04;10.82;;;3.90;;
70757;SDS011;59316;52.964;7.102;2023-08-30T20:34:26;9.13;;;3.53;;
70757;SDS011;59316;52.964;7.102;2023-08-30T20:39:47;5.72;;;3.28;;
70757;SDS011;59316;52.964;7.102;2023-08-30T20:45:09;8.40;;;3.60;;
70757;SDS011;59316;52.964;7.102;2023-08-30T20:50:31;7.05;;;2.97;;
70757;SDS011;59316;52.964;7.102;2023-08-30T20:55:55;8.13;;;3.28;;
70757;SDS011;59316;52.964;7.102;2023-08-30T21:01:17;6.13;;;3.15;;
70757;SDS011;59316;52.964;7.102;2023-08-30T21:06:38;11.55;;;3.33;;
70757;SDS011;59316;52.964;7.102;2023-08-30T21:12:00;11.18;;;3.30;;
70757;SDS011;59316;52.964;7.102;2023-08-30T21:17:21;8.40;;;3.10;;
70757;SDS011;59316;52.964;7.102;2023-08-30T21:22:43;7.15;;;3.53;;
70757;SDS011;59316;52.964;7.102;2023-08-30T21:28:05;6.88;;;3.20;;
70757;SDS011;59316;52.964;7.102;2023-08-30T21:33:36;5.85;;;2.63;;
70757;SDS011;59316;52.964;7.102;2023-08-30T21:39:15;7.55;;;2.85;;
70757;SDS011;59316;52.964;7.102;2023-08-30T21:44:37;8.20;;;2.88;;
70757;SDS011;59316;52.964;7.102;2023-08-30T21:50:00;5.45;;;2.53;;
70757;SDS011;59316;52.964;7.102;2023-08-30T21:55:21;4.47;;;2.30;;
70757;SDS011;59316;52.964;7.102;2023-08-30T22:00:42;6.72;;;2.33;;
70757;SDS011;59316;52.964;7.102;2023-08-30T22:06:04;5.18;;;2.50;;
70757;SDS011;59316;52.964;7.102;2023-08-30T22:11:25;4.20;;;2.60;;
70757;SDS011;59316;52.964;7.102;2023-08-30T22:16:46;5.45;;;2.70;;
70757;SDS011;59316;52.964;7.102;2023-08-30T22:22:08;5.85;;;2.42;;
70757;SDS011;59316;52.964;7.102;2023-08-30T22:27:29;7.45;;;3.20;;
70757;SDS011;59316;52.964;7.102;2023-08-30T22:32:51;9.15;;;3.15;;
70757;SDS011;59316;52.964;7.102;2023-08-30T22:38:12;16.75;;;4.10;;
70757;SDS011;59316;52.964;7.102;2023-08-30T22:43:34;11.73;;;4.05;;
70757;SDS011;59316;52.964;7.102;2023-08-30T22:48:55;11.32;;;2.90;;
70757;SDS011;59316;52.964;7.102;2023-08-30T22:54:16;6.57;;;3.17;;
70757;SDS011;59316;52.964;7.102;2023-08-30T22:59:38;5.93;;;3.03;;
70757;SDS011;59316;52.964;7.102;2023-08-30T23:04:59;6.35;;;3.42;;
70757;SDS011;59316;52.964;7.102;2023-08-30T23:10:22;10.13;;;3.90;;
70757;SDS011;59316;52.964;7.102;2023-08-30T23:15:43;13.30;;;3.70;;
70757;SDS011;59316;52.964;7.102;2023-08-30T23:21:05;9.63;;;4.25;;
70757;SDS011;59316;52.964;7.102;2023-08-30T23:26:33;7.57;;;3.65;;
70757;SDS011;59316;52.964;7.102;2023-08-30T23:31:55;10.88;;;3.97;;
70757;SDS011;59316;52.964;7.102;2023-08-30T23:37:16;9.00;;;3.97;;
70757;SDS011;59316;52.964;7.102;2023-08-30T23:42:43;12.30;;;4.28;;
70757;SDS011;59316;52.964;7.102;2023-08-30T23:48:04;15.65;;;4.28;;
70757;SDS011;59316;52.964;7.102;2023-08-30T23:53:26;9.50;;;3.80;;
70757;SDS011;59316;52.964;7.102;2023-08-30T23:58:47;9.60;;;4.00;;
